Deep River, Connecticut
Current Conditions -  °F | °C
As of 12:35 AM on Wednesday 22 Oct 2014 (Local Time) from KSNC Reporting Station
Overcast Overcast  
Wind Chill: 55°   Ceiling: 1200
Heat Index: 55°   Visibility: 10mi
Dew Point: 54°   Wind: 5mph
Humidity: 94%   Direction: 40°NE
Pressure: 29.93"   Gusts: NA
Location:  41.39°N, 72.44°W
Report Text: KSNC 220435Z AUTO 04004KT 10SM OVC012 13/12 A2993 RMK AO2
Loading
Personal Weather Stations






























Interactive Weather Map
Tropical Storm Tracking
New forecast layout! Learn more

10-Day Weather Forecast

Advertisements
Track Severe Weather on mobile